Time;durP1;ratioP1;P1;durP2;ratioP2;P2;SDS_P1;SDS_P2;PMS_P1;PMS_P2;Temp;Humidity;BMP_temperature;BMP_pressure;BME280_temperature;BME280_humidity;BME280_pressure;Samples;Min_cycle;Max_cycle;Signal;HPM_P1;HPM_P2
2021/12/15 00:01:54;;;;;;;;;;;;;;;7.56;100.00;102491.91;4987069;28;19965;-80
2021/12/15 00:04:19;;;;;;;;;;;;;;;7.59;100.00;102481.25;4972557;28;19922;-80
2021/12/15 00:06:45;;;;;;;;;;;;;;;7.65;100.00;102484.47;4986668;28;20390;-80
2021/12/15 00:09:15;;;;;;;;;;;;;;;7.61;100.00;102484.66;4977322;28;20452;-79
2021/12/15 00:11:48;;;;;;;;;;;;;;;7.63;100.00;102490.69;4971334;28;19914;-79
2021/12/15 00:14:18;;;;;;;;;;;;;;;7.67;100.00;102490.47;4972167;28;20004;-78
2021/12/15 00:16:47;;;;;;;;;;;;;;;7.67;100.00;102487.84;4971607;28;19914;-78
2021/12/15 00:19:13;;;;;;;;;;;;;;;7.77;100.00;102483.00;4972995;28;20372;-79
2021/12/15 00:21:39;;;;;;;;;;;;;;;7.71;100.00;102481.50;4988985;28;19942;-79
2021/12/15 00:24:06;;;;;;;;;;;;;;;7.70;100.00;102484.25;4974238;28;19914;-79
2021/12/15 00:26:32;;;;;;;;;;;;;;;7.74;100.00;102485.78;4961653;28;19914;-80
2021/12/15 00:28:57;;;;;;;;;;;;;;;7.59;100.00;102478.63;4977821;28;20017;-80
2021/12/15 00:31:28;;;;;;;;;;;;;;;7.61;100.00;102479.38;4977759;28;20045;-81
2021/12/15 00:33:56;;;;;;;;;;;;;;;7.60;100.00;102482.97;4977529;28;20417;-80
2021/12/15 00:36:26;;;;;;;;;;;;;;;7.54;100.00;102484.13;4978825;28;20003;-80
2021/12/15 00:39:07;;;;;;;;;;;;;;;7.58;100.00;102482.19;4977293;28;19992;-80
2021/12/15 00:41:41;;;;;;;;;;;;;;;7.66;100.00;102480.03;4993903;28;20371;-80
2021/12/15 00:44:08;;;;;;;;;;;;;;;7.62;100.00;102484.59;4995927;28;19973;-80
2021/12/15 00:46:34;;;;;;;;;;;;;;;7.48;100.00;102482.59;4979087;28;19941;-80
2021/12/15 00:48:59;;;;;;;;;;;;;;;7.55;100.00;102485.81;4992315;28;20271;-79
2021/12/15 00:51:25;;;;;;;;;;;;;;;7.62;100.00;102486.38;4977675;28;19913;-80
2021/12/15 00:53:58;;;;;;;;;;;;;;;7.65;100.00;102480.94;4977125;28;20301;-79
2021/12/15 00:56:24;;;;;;;;;;;;;;;7.63;100.00;102477.53;4977177;28;20356;-80
2021/12/15 00:58:50;;;;;;;;;;;;;;;7.68;100.00;102486.09;4963772;28;19910;-80
2021/12/15 01:01:17;;;;;;;;;;;;;;;7.53;100.00;102487.66;4997984;28;19914;-80
2021/12/15 01:03:44;;;;;;;;;;;;;;;7.55;100.00;102474.44;4993848;28;19921;-79
2021/12/15 01:09:36;;;;;;;;;;;;;;;7.68;100.00;102488.72;4978128;28;19964;-79
2021/12/15 01:20:16;;;;;;;;;;;;;;;7.65;100.00;102473.94;5016277;28;20323;-80
2021/12/15 01:22:43;;;;;;;;;;;;;;;7.64;100.00;102481.88;5014571;28;20279;-79
2021/12/15 01:25:12;;;;;;;;;;;;;;;7.62;100.00;102483.75;4999061;28;19919;-80
2021/12/15 01:27:43;;;;;;;;;;;;;;;7.62;100.00;102487.22;5024942;23;19921;-79
2021/12/15 01:30:10;;;;;;;;;;;;;;;7.56;100.00;102481.38;4966886;28;20013;-79
2021/12/15 01:32:37;;;;;;;;;;;;;;;7.63;100.00;102483.69;5006467;23;19921;-80
2021/12/15 01:35:03;;;;;;;;;;;;;;;7.60;100.00;102489.06;5002414;28;19917;-79
2021/12/15 01:37:29;;;;;;;;;;;;;;;7.65;100.00;102492.34;5006555;23;20391;-79
2021/12/15 01:39:56;;;;;;;;;;;;;;;7.56;100.00;102489.28;5001662;28;19917;-79
2021/12/15 01:42:26;;;;;;;;;;;;;;;7.58;100.00;102493.53;4985180;28;19953;-79
2021/12/15 01:47:41;;;;;;;;;;;;;;;7.63;100.00;102493.31;5022117;28;20355;-79
2021/12/15 01:50:08;;;;;;;;;;;;;;;7.62;100.00;102487.22;4992292;28;19913;-79
2021/12/15 01:52:36;;;;;;;;;;;;;;;7.72;100.00;102490.25;5019910;28;19909;-80
2021/12/15 01:55:08;;;;;;;;;;;;;;;7.52;100.00;102493.84;4970717;28;20048;-79
2021/12/15 01:57:34;;;;;;;;;;;;;;;7.58;100.00;102496.16;5002468;28;19952;-79
2021/12/15 02:00:00;;;;;;;;;;;;;;;7.66;100.00;102504.56;5003601;28;19948;-79
2021/12/15 02:02:28;;;;;;;;;;;;;;;7.64;100.00;102505.56;5003361;28;19921;-79
2021/12/15 02:04:54;;;;;;;;;;;;;;;7.63;100.00;102494.19;5004827;28;19924;-79
2021/12/15 02:07:24;;;;;;;;;;;;;;;7.62;100.00;102495.09;5002024;28;20005;-80
2021/12/15 02:10:02;;;;;;;;;;;;;;;7.62;100.00;102500.34;5003227;28;19920;-79
2021/12/15 02:12:44;;;;;;;;;;;;;;;7.58;100.00;102508.47;5006748;28;19945;-78
2021/12/15 02:15:15;;;;;;;;;;;;;;;7.55;100.00;102514.72;5006644;28;19924;-79
2021/12/15 02:17:44;;;;;;;;;;;;;;;7.57;100.00;102512.03;5003220;28;19985;-79
2021/12/15 02:20:13;;;;;;;;;;;;;;;7.67;100.00;102514.13;4987345;28;19925;-79
2021/12/15 02:22:39;;;;;;;;;;;;;;;7.53;100.00;102508.69;5018277;28;19944;-79
2021/12/15 02:25:08;;;;;;;;;;;;;;;7.53;100.00;102517.41;4980690;28;19971;-78
2021/12/15 02:27:35;;;;;;;;;;;;;;;7.43;100.00;102512.69;4995728;28;19973;-78
2021/12/15 02:30:40;;;;;;;;;;;;;;;7.48;100.00;102523.81;4995498;28;19913;-78
2021/12/15 02:38:49;;;;;;;;;;;;;;;7.51;100.00;102515.78;4922404;29;19922;-80
2021/12/15 02:41:20;;;;;;;;;;;;;;;7.50;100.00;102516.72;4921472;29;20018;-80
2021/12/15 02:43:56;;;;;;;;;;;;;;;7.43;100.00;102512.69;4921086;29;19986;-79
2021/12/15 02:46:21;;;;;;;;;;;;;;;7.50;100.00;102519.34;4937737;29;20391;-80
2021/12/15 02:48:49;;;;;;;;;;;;;;;7.56;100.00;102524.31;4905018;29;19914;-80
2021/12/15 02:51:17;;;;;;;;;;;;;;;7.55;100.00;102519.13;4929319;23;19934;-79
2021/12/15 02:53:45;;;;;;;;;;;;;;;7.61;100.00;102513.56;5000025;28;19947;-80
2021/12/15 02:56:10;;;;;;;;;;;;;;;7.57;100.00;102509.41;4982169;28;19984;-79
2021/12/15 02:58:47;;;;;;;;;;;;;;;7.41;100.00;102515.38;5016184;28;19929;-80
2021/12/15 03:01:23;;;;;;;;;;;;;;;7.52;100.00;102517.50;4982011;28;20282;-78
2021/12/15 03:06:40;;;;;;;;;;;;;;;7.55;100.00;102525.25;4999202;28;19920;-79
2021/12/15 03:17:17;;;;;;;;;;;;;;;7.48;100.00;102508.91;5025614;28;19944;-79
2021/12/15 03:19:43;;;;;;;;;;;;;;;7.57;100.00;102512.88;5005792;28;19921;-79
2021/12/15 03:22:08;;;;;;;;;;;;;;;7.53;100.00;102512.16;4987535;28;19936;-80
2021/12/15 03:24:34;;;;;;;;;;;;;;;7.58;100.00;102519.81;5001809;28;19917;-80
2021/12/15 03:27:15;;;;;;;;;;;;;;;7.67;100.00;102519.41;5003867;28;19913;-80
2021/12/15 03:35:46;;;;;;;;;;;;;;;7.47;100.00;102511.59;5003392;28;19917;-80
2021/12/15 03:38:11;;;;;;;;;;;;;;;7.58;100.00;102517.19;5002377;28;20014;-79
2021/12/15 03:40:40;;;;;;;;;;;;;;;7.62;100.00;102517.91;5002690;28;19944;-80
2021/12/15 03:43:08;;;;;;;;;;;;;;;7.61;100.00;102526.72;5020188;28;19918;-79
2021/12/15 03:45:37;;;;;;;;;;;;;;;7.60;100.00;102517.13;5019357;28;20016;-80
2021/12/15 03:48:05;;;;;;;;;;;;;;;7.60;100.00;102512.72;4994972;28;19968;-80
2021/12/15 03:50:31;;;;;;;;;;;;;;;7.58;100.00;102522.47;4961895;28;19976;-79
2021/12/15 03:52:56;;;;;;;;;;;;;;;7.64;100.00;102518.69;4977477;28;20005;-79
2021/12/15 03:55:24;;;;;;;;;;;;;;;7.74;100.00;102526.09;4998049;28;20394;-79
2021/12/15 03:57:50;;;;;;;;;;;;;;;7.63;100.00;102532.75;5025180;28;19913;-79
2021/12/15 04:00:16;;;;;;;;;;;;;;;7.59;100.00;102525.97;4986709;28;19925;-81
2021/12/15 04:02:42;;;;;;;;;;;;;;;7.53;100.00;102527.09;5024219;28;19917;-80
2021/12/15 04:05:09;;;;;;;;;;;;;;;7.64;100.00;102531.84;4988518;28;19951;-79
2021/12/15 04:07:37;;;;;;;;;;;;;;;7.69;100.00;102516.69;4987705;28;19953;-79
2021/12/15 04:10:07;;;;;;;;;;;;;;;7.69;100.00;102520.19;5006169;28;19949;-77
2021/12/15 04:12:32;;;;;;;;;;;;;;;7.73;100.00;102523.53;5010467;28;19921;-80
2021/12/15 04:15:18;;;;;;;;;;;;;;;7.65;100.00;102533.53;5028481;28;19914;-80
2021/12/15 04:17:44;;;;;;;;;;;;;;;7.80;100.00;102522.31;5026834;28;19913;-79
2021/12/15 04:20:11;;;;;;;;;;;;;;;7.77;100.00;102524.22;5055777;28;19984;-79
2021/12/15 04:22:37;;;;;;;;;;;;;;;7.87;100.00;102523.72;5026420;28;19955;-79
2021/12/15 04:25:08;;;;;;;;;;;;;;;7.88;100.00;102527.19;5041778;28;19913;-79
2021/12/15 04:27:33;;;;;;;;;;;;;;;7.84;100.00;102531.75;5023163;28;19976;-79
2021/12/15 04:29:58;;;;;;;;;;;;;;;7.85;100.00;102533.44;5008677;28;20351;-79
2021/12/15 04:32:30;;;;;;;;;;;;;;;7.80;100.00;102535.44;5022391;28;19913;-78
2021/12/15 04:34:56;;;;;;;;;;;;;;;7.79;100.00;102532.88;5020148;28;19913;-78
2021/12/15 04:37:22;;;;;;;;;;;;;;;7.81;100.00;102534.53;5038216;28;19917;-79
2021/12/15 04:39:47;;;;;;;;;;;;;;;7.84;100.00;102530.91;5006592;28;19913;-79
2021/12/15 04:42:23;;;;;;;;;;;;;;;7.77;100.00;102538.25;5008646;23;19956;-79
2021/12/15 04:44:54;;;;;;;;;;;;;;;7.81;100.00;102546.81;5000091;28;19917;-79
2021/12/15 04:47:20;;;;;;;;;;;;;;;7.80;100.00;102542.50;5017588;28;19920;-79
2021/12/15 04:49:48;;;;;;;;;;;;;;;7.88;100.00;102538.59;5004203;28;19941;-79
2021/12/15 04:52:15;;;;;;;;;;;;;;;7.87;100.00;102542.13;5006446;28;19909;-79
2021/12/15 04:54:41;;;;;;;;;;;;;;;7.86;100.00;102544.84;5024881;28;19955;-79
2021/12/15 04:57:07;;;;;;;;;;;;;;;7.86;100.00;102548.31;5022641;28;20000;-79
2021/12/15 04:59:34;;;;;;;;;;;;;;;7.72;100.00;102550.72;5033814;28;20316;-78
2021/12/15 05:01:59;;;;;;;;;;;;;;;7.84;100.00;102541.44;5015883;28;19913;-78
2021/12/15 05:04:24;;;;;;;;;;;;;;;7.75;100.00;102553.25;5014959;28;19920;-78
2021/12/15 05:06:50;;;;;;;;;;;;;;;7.77;100.00;102543.50;4996021;28;19921;-80
2021/12/15 05:09:16;;;;;;;;;;;;;;;7.81;100.00;102552.94;4985174;28;19948;-78
2021/12/15 05:11:42;;;;;;;;;;;;;;;7.78;100.00;102554.88;5011005;28;20127;-79
2021/12/15 05:14:07;;;;;;;;;;;;;;;7.78;100.00;102555.72;4994712;28;20333;-78
2021/12/15 05:16:33;;;;;;;;;;;;;;;7.77;100.00;102554.03;4994747;28;19914;-78
2021/12/15 05:19:01;;;;;;;;;;;;;;;7.83;100.00;102547.59;4965730;28;20071;-79
2021/12/15 05:21:28;;;;;;;;;;;;;;;7.82;100.00;102549.38;5011505;28;20043;-79
2021/12/15 05:24:08;;;;;;;;;;;;;;;7.84;100.00;102552.81;5015233;28;20020;-79
2021/12/15 05:26:34;;;;;;;;;;;;;;;7.88;100.00;102545.59;5001025;28;19917;-79
2021/12/15 05:28:59;;;;;;;;;;;;;;;7.89;100.00;102549.94;5014168;28;19918;-79
2021/12/15 05:31:35;;;;;;;;;;;;;;;7.84;100.00;102546.69;4997366;28;19924;-79
2021/12/15 05:36:26;;;;;;;;;;;;;;;7.95;100.00;102555.78;5015692;23;19934;-79
2021/12/15 05:38:51;;;;;;;;;;;;;;;7.88;100.00;102551.72;5009888;28;19989;-79
2021/12/15 05:41:17;;;;;;;;;;;;;;;7.89;100.00;102550.78;5008444;28;19917;-80
2021/12/15 05:43:43;;;;;;;;;;;;;;;7.84;100.00;102551.94;5011007;28;19920;-79
2021/12/15 05:46:08;;;;;;;;;;;;;;;7.83;100.00;102556.34;5011177;28;20303;-77
2021/12/15 05:48:34;;;;;;;;;;;;;;;7.85;100.00;102545.75;5005339;28;19968;-78
2021/12/15 05:50:59;;;;;;;;;;;;;;;7.81;100.00;102552.06;4999439;28;19917;-79
2021/12/15 05:53:25;;;;;;;;;;;;;;;7.80;100.00;102558.28;4997488;28;19913;-78
2021/12/15 05:55:51;;;;;;;;;;;;;;;7.89;100.00;102561.31;5020743;28;19918;-78
2021/12/15 05:58:17;;;;;;;;;;;;;;;7.85;100.00;102558.91;4995389;28;19913;-80
2021/12/15 06:00:43;;;;;;;;;;;;;;;7.88;100.00;102561.38;5006349;28;19928;-82
2021/12/15 06:03:09;;;;;;;;;;;;;;;7.92;100.00;102555.06;4979919;28;19914;-79
2021/12/15 06:05:35;;;;;;;;;;;;;;;7.93;100.00;102559.41;5001411;28;19914;-79
2021/12/15 06:08:00;;;;;;;;;;;;;;;8.04;100.00;102564.13;5002760;28;19917;-79
2021/12/15 06:10:27;;;;;;;;;;;;;;;7.99;100.00;102571.41;4999987;28;19920;-78
2021/12/15 06:12:53;;;;;;;;;;;;;;;8.04;100.00;102575.53;5014691;28;19924;-78
2021/12/15 06:15:22;;;;;;;;;;;;;;;8.04;100.00;102567.63;4995213;28;19957;-79
2021/12/15 06:17:49;;;;;;;;;;;;;;;7.99;100.00;102569.63;5007800;28;19913;-78
2021/12/15 06:20:14;;;;;;;;;;;;;;;8.05;100.00;102574.59;4994878;28;19914;-79
2021/12/15 06:22:41;;;;;;;;;;;;;;;8.03;100.00;102565.91;5005003;28;20241;-79
2021/12/15 06:25:07;;;;;;;;;;;;;;;7.94;100.00;102582.13;4984666;28;19913;-81
2021/12/15 06:27:35;;;;;;;;;;;;;;;8.10;100.00;102572.59;5019826;28;19929;-80
2021/12/15 06:30:01;;;;;;;;;;;;;;;8.01;100.00;102577.44;4997421;28;19964;-80
2021/12/15 06:32:27;;;;;;;;;;;;;;;8.03;100.00;102570.34;5018909;28;19913;-79
2021/12/15 06:34:53;;;;;;;;;;;;;;;8.06;100.00;102576.31;4979078;28;19918;-80
2021/12/15 06:37:19;;;;;;;;;;;;;;;8.14;100.00;102581.19;5037012;28;19936;-78
2021/12/15 06:39:44;;;;;;;;;;;;;;;8.03;100.00;102579.06;5026112;28;19925;-79
2021/12/15 06:42:09;;;;;;;;;;;;;;;8.03;100.00;102579.06;5025507;28;19936;-80
2021/12/15 06:44:35;;;;;;;;;;;;;;;8.10;100.00;102580.47;5014115;28;19984;-81
2021/12/15 06:47:24;;;;;;;;;;;;;;;8.07;100.00;102583.25;5017956;28;20347;-77
2021/12/15 06:58:24;;;;;;;;;;;;;;;8.07;100.00;102604.31;5032105;28;19927;-77
2021/12/15 07:00:53;;;;;;;;;;;;;;;8.10;100.00;102598.91;5036316;28;19913;-79
2021/12/15 07:03:20;;;;;;;;;;;;;;;8.23;100.00;102595.69;5028288;28;19913;-80
2021/12/15 07:05:46;;;;;;;;;;;;;;;8.22;100.00;102593.97;5010145;28;19917;-78
2021/12/15 07:08:12;;;;;;;;;;;;;;;8.17;100.00;102596.81;5020641;28;19957;-79
2021/12/15 07:10:40;;;;;;;;;;;;;;;8.26;100.00;102595.53;5029378;28;20327;-77
2021/12/15 07:13:07;;;;;;;;;;;;;;;8.25;100.00;102605.22;5030759;28;20278;-82
2021/12/15 07:15:34;;;;;;;;;;;;;;;8.08;100.00;102610.41;4995714;28;20251;-84
2021/12/15 07:18:05;;;;;;;;;;;;;;;8.36;100.00;102602.06;5017103;28;19913;-83
2021/12/15 07:23:00;;;;;;;;;;;;;;;8.18;100.00;102603.81;5027611;28;20239;-77
2021/12/15 07:25:26;;;;;;;;;;;;;;;8.19;100.00;102610.75;5022946;28;19914;-76
2021/12/15 07:28:01;;;;;;;;;;;;;;;8.28;100.00;102602.44;4997455;28;19920;-77
2021/12/15 07:30:27;;;;;;;;;;;;;;;8.26;100.00;102604.28;5028365;28;20363;-76
2021/12/15 07:32:55;;;;;;;;;;;;;;;8.16;100.00;102603.88;5039936;28;19909;-78
2021/12/15 07:35:37;;;;;;;;;;;;;;;8.27;100.00;102606.00;5040932;28;19924;-79
2021/12/15 07:38:03;;;;;;;;;;;;;;;8.24;100.00;102605.28;5031716;28;20015;-78
2021/12/15 07:40:29;;;;;;;;;;;;;;;8.27;100.00;102606.00;5008071;28;19999;-77
2021/12/15 07:43:07;;;;;;;;;;;;;;;8.26;100.00;102606.91;4984320;28;21605;-77
2021/12/15 07:45:35;;;;;;;;;;;;;;;8.30;100.00;102611.09;4995752;28;19932;-76
2021/12/15 07:48:03;;;;;;;;;;;;;;;8.28;100.00;102607.69;5014567;28;20056;-79
2021/12/15 07:50:29;;;;;;;;;;;;;;;8.26;100.00;102609.53;5015276;28;20318;-79
2021/12/15 07:52:55;;;;;;;;;;;;;;;8.30;100.00;102616.38;5017144;28;20449;-79
2021/12/15 07:55:22;;;;;;;;;;;;;;;8.16;100.00;102622.28;5001814;28;19956;-79
2021/12/15 07:57:49;;;;;;;;;;;;;;;8.19;100.00;102613.41;5017862;28;20425;-78
2021/12/15 08:00:15;;;;;;;;;;;;;;;8.16;100.00;102624.94;5440576;23;19920;-79
2021/12/15 08:02:41;;;;;;;;;;;;;;;8.10;100.00;102622.56;4972323;28;20351;-78
2021/12/15 08:05:07;;;;;;;;;;;;;;;8.15;100.00;102625.00;4958784;28;19922;-79
2021/12/15 08:07:34;;;;;;;;;;;;;;;8.10;100.00;102629.63;4958045;28;20001;-79
2021/12/15 08:10:03;;;;;;;;;;;;;;;8.12;100.00;102633.03;4993157;23;19930;-81
2021/12/15 08:12:29;;;;;;;;;;;;;;;8.13;100.00;102638.25;4957958;29;19954;-80
2021/12/15 08:14:54;;;;;;;;;;;;;;;8.13;100.00;102635.63;4947816;29;20167;-82
2021/12/15 08:17:21;;;;;;;;;;;;;;;8.15;100.00;102633.75;4961342;29;20254;-81
2021/12/15 08:19:46;;;;;;;;;;;;;;;8.23;100.00;102629.91;4955367;29;20432;-78
2021/12/15 08:22:11;;;;;;;;;;;;;;;8.16;100.00;102634.59;4956644;29;19922;-76
2021/12/15 08:24:39;;;;;;;;;;;;;;;8.22;100.00;102636.06;4936059;29;20452;-77
2021/12/15 08:27:05;;;;;;;;;;;;;;;8.16;100.00;102630.19;4960166;29;19919;-81
2021/12/15 08:29:31;;;;;;;;;;;;;;;8.22;100.00;102636.06;4942866;29;19918;-77
2021/12/15 08:31:56;;;;;;;;;;;;;;;8.26;100.00;102641.13;4961063;29;19919;-75
2021/12/15 08:34:22;;;;;;;;;;;;;;;8.25;100.00;102635.94;4952877;28;19969;-76
2021/12/15 08:36:49;;;;;;;;;;;;;;;8.31;100.00;102638.28;4935276;29;19923;-76
2021/12/15 08:39:15;;;;;;;;;;;;;;;8.31;100.00;102643.53;4966768;28;19918;-75
2021/12/15 08:41:40;;;;;;;;;;;;;;;8.16;100.00;102640.72;4934757;29;20013;-76
2021/12/15 08:44:10;;;;;;;;;;;;;;;8.19;100.00;102636.25;4936279;29;19934;-76
2021/12/15 08:46:41;;;;;;;;;;;;;;;8.17;100.00;102638.94;4939953;29;19914;-77
2021/12/15 08:49:10;;;;;;;;;;;;;;;8.21;100.00;102631.75;4972468;28;19918;-76
2021/12/15 08:51:39;;;;;;;;;;;;;;;8.20;100.00;102637.94;4939110;29;19965;-81
2021/12/15 08:54:08;;;;;;;;;;;;;;;8.25;100.00;102641.22;4969473;28;19945;-77
2021/12/15 08:56:34;;;;;;;;;;;;;;;8.34;100.00;102641.63;4941357;29;19929;-74
2021/12/15 08:59:00;;;;;;;;;;;;;;;8.29;100.00;102651.53;4938213;29;21127;-76
2021/12/15 09:01:25;;;;;;;;;;;;;;;8.22;100.00;102651.88;4938752;29;20009;-75
2021/12/15 09:03:51;;;;;;;;;;;;;;;8.29;100.00;102651.53;4921772;29;20009;-74
2021/12/15 09:06:17;;;;;;;;;;;;;;;8.24;100.00;102650.03;4954580;29;20074;-74
2021/12/15 09:08:43;;;;;;;;;;;;;;;8.21;100.00;102655.44;4953294;29;19926;-75
2021/12/15 09:11:14;;;;;;;;;;;;;;;8.31;100.00;102654.06;4937213;29;20013;-75
2021/12/15 09:13:40;;;;;;;;;;;;;;;8.26;100.00;102661.34;4937880;29;19927;-76
2021/12/15 09:16:07;;;;;;;;;;;;;;;8.33;100.00;102660.09;4954747;29;20150;-79
2021/12/15 09:18:36;;;;;;;;;;;;;;;8.35;100.00;102661.75;4941672;29;19919;-79
2021/12/15 09:21:07;;;;;;;;;;;;;;;8.29;100.00;102656.78;4957173;29;19914;-81
2021/12/15 09:23:33;;;;;;;;;;;;;;;8.24;100.00;102658.75;4945193;29;19944;-79
2021/12/15 09:25:59;;;;;;;;;;;;;;;8.28;100.00;102662.13;4956330;29;19918;-76
2021/12/15 09:28:25;;;;;;;;;;;;;;;8.26;100.00;102662.19;4937150;29;19926;-75
2021/12/15 09:30:52;;;;;;;;;;;;;;;8.24;100.00;102661.41;4934421;29;19918;-75
2021/12/15 09:33:22;;;;;;;;;;;;;;;8.26;100.00;102663.97;4956404;29;19919;-76
2021/12/15 09:35:47;;;;;;;;;;;;;;;8.31;100.00;102672.50;4953663;29;19945;-77
2021/12/15 09:38:14;;;;;;;;;;;;;;;8.31;100.00;102681.25;4954255;29;20337;-77
2021/12/15 09:40:40;;;;;;;;;;;;;;;8.25;100.00;102678.06;4938789;29;19926;-75
2021/12/15 09:43:10;;;;;;;;;;;;;;;8.33;100.00;102673.28;4954716;28;19937;-76
2021/12/15 09:45:53;;;;;;;;;;;;;;;8.37;100.00;102670.41;4955076;29;19919;-76
2021/12/15 10:04:27;;;;;;;;;;;;;;;8.49;100.00;102689.22;4897294;29;19935;-81
2021/12/15 10:18:05;;;;;;;17.23;3.60;;;;;;;8.36;100.00;102678.41;5100976;28;20036;-80
2021/12/15 10:20:32;;;;;;;14.45;3.97;;;;;;;8.30;100.00;102669.00;5105140;28;20023;-82
2021/12/15 10:23:03;;;;;;;21.33;6.07;;;;;;;8.45;100.00;102704.34;5106455;28;20020;-79
2021/12/15 10:25:32;;;;;;;17.10;4.43;;;;;;;8.24;100.00;102668.44;5104285;28;20115;-78
2021/12/15 10:28:03;;;;;;;16.33;3.53;;;;;;;8.12;100.00;102676.00;5108769;28;20027;-82
2021/12/15 10:30:41;;;;;;;17.40;3.40;;;;;;;8.31;100.00;102711.97;5106726;22;20441;-81
2021/12/15 10:33:17;;;;;;;16.00;3.38;;;;;;;8.23;100.00;102679.91;5058811;28;20043;-80
2021/12/15 10:35:51;;;;;;;19.15;3.40;;;;;;;8.18;100.00;102679.28;5073996;28;20100;-81
2021/12/15 10:38:25;;;;;;;13.10;3.50;;;;;;;8.40;100.00;102687.88;5093137;28;20020;-81
2021/12/15 10:40:55;;;;;;;13.43;3.53;;;;;;;8.00;100.00;102646.78;5063189;28;20024;-79
2021/12/15 10:43:29;;;;;;;14.95;3.40;;;;;;;8.27;100.00;102713.91;5073156;28;20277;-79
2021/12/15 10:46:01;;;;;;;14.63;2.85;;;;;;;8.29;100.00;102698.03;5076276;28;20107;-80
2021/12/15 10:48:36;;;;;;;11.27;2.88;;;;;;;8.50;100.00;102699.69;5078487;28;20020;-81
2021/12/15 10:51:22;;;;;;;12.40;2.78;;;;;;;8.37;100.00;102685.38;5097437;28;20020;-81
2021/12/15 10:53:49;;;;;;;11.98;3.03;;;;;;;8.24;100.00;102655.28;5092207;28;20016;-80
2021/12/15 10:56:21;;;;;;;14.73;3.72;;;;;;;8.21;100.00;102660.72;5112111;28;20043;-80
2021/12/15 10:58:51;;;;;;;10.98;2.50;;;;;;;8.39;100.00;102699.31;5112945;27;20004;-81
2021/12/15 11:01:32;;;;;;;12.90;2.80;;;;;;;8.31;100.00;102706.72;5092604;28;20196;-79
2021/12/15 11:04:00;;;;;;;15.30;3.45;;;;;;;8.13;100.00;102658.44;5106446;28;20034;-81
2021/12/15 11:06:32;;;;;;;13.82;2.85;;;;;;;8.16;100.00;102653.03;5074486;28;20092;-79
2021/12/15 11:09:23;;;;;;;13.63;2.72;;;;;;;8.40;100.00;102697.53;5074878;28;20032;-79
2021/12/15 11:12:05;;;;;;;14.25;3.20;;;;;;;8.40;100.00;102669.44;5067797;28;20096;-81
2021/12/15 11:14:37;;;;;;;11.90;2.72;;;;;;;8.47;100.00;102696.34;5090306;28;20039;-78
2021/12/15 11:17:09;;;;;;;102.18;38.20;;;;;;;8.73;100.00;102709.13;5107397;28;20027;-81
2021/12/15 11:19:47;;;;;;;20.75;7.07;;;;;;;8.69;100.00;102710.19;5097778;28;20076;-83
2021/12/15 11:22:40;;;;;;;12.98;3.15;;;;;;;8.78;100.00;102708.88;5053387;28;20157;-81
2021/12/15 11:25:14;;;;;;;11.52;3.03;;;;;;;8.15;100.00;102638.16;5051814;28;20038;-82
2021/12/15 11:27:40;;;;;;;15.57;4.78;;;;;;;8.59;100.00;102708.09;5057592;28;20036;-81
2021/12/15 11:30:13;;;;;;;18.88;4.80;;;;;;;8.37;100.00;102678.31;5070955;28;20059;-84
2021/12/15 11:32:45;;;;;;;12.90;2.90;;;;;;;8.42;100.00;102680.75;5052239;28;20044;-84
2021/12/15 11:35:31;;;;;;;14.98;2.63;;;;;;;8.53;100.00;102694.28;5050113;28;20094;-80
2021/12/15 11:38:48;;;;;;;15.10;2.75;;;;;;;8.53;100.00;102698.69;5011569;28;20038;-80
2021/12/15 11:41:20;;;;;;;9.80;2.33;;;;;;;8.51;100.00;102700.53;4987854;28;20037;-83
2021/12/15 11:43:51;;;;;;;11.23;2.22;;;;;;;8.47;100.00;102670.00;5009002;28;20117;-82
2021/12/15 11:46:25;;;;;;;10.65;2.10;;;;;;;8.51;100.00;102698.75;4993258;28;20029;-80
2021/12/15 11:48:55;;;;;;;7.78;2.22;;;;;;;8.63;100.00;102675.38;4994049;28;20049;-82
2021/12/15 11:52:11;;;;;;;9.77;1.95;;;;;;;8.25;100.00;102626.28;5009828;28;20077;-80
2021/12/15 11:54:48;;;;;;;10.27;1.92;;;;;;;8.59;100.00;102665.97;4954035;29;20497;-80
2021/12/15 11:57:27;;;;;;;9.30;1.90;;;;;;;8.52;100.00;102647.81;4933532;29;20031;-77
2021/12/15 12:00:13;;;;;;;28.42;12.57;;;;;;;8.63;100.00;102678.91;5082410;22;20056;-85
2021/12/15 12:02:44;;;;;;;9.45;3.47;;;;;;;8.71;100.00;102650.38;5038442;28;20125;-81
2021/12/15 12:05:19;;;;;;;12.23;2.63;;;;;;;8.48;100.00;102662.06;5056373;28;20025;-81
2021/12/15 12:07:57;;;;;;;7.70;1.60;;;;;;;8.76;100.00;102689.66;5033418;28;20037;-81
2021/12/15 12:10:35;;;;;;;11.00;2.42;;;;;;;8.64;100.00;102675.31;5035733;28;20033;-81
2021/12/15 12:13:08;;;;;;;6.75;1.77;;;;;;;8.83;100.00;102688.44;5036699;28;20030;-83
2021/12/15 12:15:44;;;;;;;6.65;1.63;;;;;;;8.47;100.00;102628.75;5053615;28;20025;-81
2021/12/15 12:18:33;;;;;;;6.70;1.67;;;;;;;8.70;100.00;102663.66;5032263;28;20093;-83
2021/12/15 12:21:17;;;;;;;6.60;1.48;;;;;;;8.80;100.00;102682.47;5028004;28;20034;-83
2021/12/15 12:23:46;;;;;;;9.30;1.98;;;;;;;8.49;100.00;102615.50;5027410;28;20437;-83
2021/12/15 12:26:13;;;;;;;5.45;1.50;;;;;;;8.78;100.00;102695.72;5042993;28;20194;-82
2021/12/15 12:28:41;;;;;;;16.00;5.53;;;;;;;8.81;100.00;102663.09;4974266;28;20060;-80
2021/12/15 12:31:21;;;;;;;7.22;1.20;;;;;;;8.49;100.00;102637.44;4995333;28;20083;-81
2021/12/15 12:36:29;;;;;;;11.87;1.70;;;;;;;8.48;100.00;102626.97;5065906;22;20559;-80
2021/12/15 12:39:04;;;;;;;9.32;2.38;;;;;;;8.66;100.00;102706.88;5059478;28;20297;-80
2021/12/15 12:41:36;;;;;;;9.02;1.60;;;;;;;8.56;100.00;102662.53;5058406;28;20071;-81
2021/12/15 12:44:07;;;;;;;12.35;1.60;;;;;;;8.64;100.00;102667.41;5057367;28;20021;-82
2021/12/15 12:46:42;;;;;;;7.82;2.80;;;;;;;8.52;100.00;102647.81;5058897;28;20025;-79
2021/12/15 12:50:01;;;;;;;7.20;1.83;;;;;;;8.53;100.00;102625.81;5057404;28;20037;-79
2021/12/15 13:01:21;;;;;;;13.02;2.35;;;;;;;9.07;100.00;102685.53;5062183;28;20032;-81
2021/12/15 13:03:57;;;;;;;12.65;2.53;;;;;;;8.88;100.00;102659.22;5063078;28;20044;-80
2021/12/15 13:06:43;;;;;;;10.80;3.20;;;;;;;8.95;100.00;102689.63;5064710;28;20055;-82
2021/12/15 13:09:15;;;;;;;6.28;1.65;;;;;;;8.82;100.00;102664.81;5042872;28;20029;-79
2021/12/15 13:11:52;;;;;;;5.50;1.40;;;;;;;8.68;100.00;102649.69;5038879;28;20128;-83
2021/12/15 13:14:31;;;;;;;7.57;1.83;;;;;;;8.80;100.00;102617.47;5059036;28;20029;-78
2021/12/15 13:16:59;;;;;;;8.55;2.15;;;;;;;8.93;100.00;102639.63;5058727;28;20025;-81
2021/12/15 13:19:33;;;;;;;10.05;2.78;;;;;;;8.93;100.00;102658.06;5058339;28;20035;-81
2021/12/15 13:33:29;;;;;;;7.70;1.27;;;;;;;8.76;100.00;102684.41;5126933;23;20112;-80
2021/12/15 13:35:58;;;;;;;10.77;3.08;;;;;;;8.73;100.00;102659.06;4998463;28;20054;-81
2021/12/15 13:38:32;;;;;;;10.38;1.98;;;;;;;8.90;100.00;102678.44;4998147;28;20049;-81
2021/12/15 13:43:44;;;;;;;12.47;2.67;;;;;;;8.86;100.00;102666.38;5085638;23;20128;-84
2021/12/15 13:46:38;;;;;;;9.68;2.10;;;;;;;8.73;100.00;102672.25;5058568;28;20290;-83
2021/12/15 13:49:18;;;;;;;9.55;2.17;;;;;;;8.81;100.00;102676.28;5042126;28;20029;-82
2021/12/15 13:52:06;;;;;;;8.93;1.77;;;;;;;8.88;100.00;102673.28;5074383;28;20025;-82
2021/12/15 13:54:32;;;;;;;10.57;2.00;;;;;;;8.88;100.00;102678.53;5050477;28;20025;-82
2021/12/15 13:57:19;;;;;;;9.35;2.00;;;;;;;8.66;100.00;102651.56;5040185;28;20459;-78
2021/12/15 13:59:55;;;;;;;13.35;2.00;;;;;;;9.03;100.00;102684.81;4922628;29;20039;-82
2021/12/15 14:02:32;;;;;;;6.68;1.70;;;;;;;8.65;100.00;102691.97;4922177;29;20061;-83
2021/12/15 14:05:18;;;;;;;8.98;1.95;;;;;;;8.78;100.00;102685.19;4922882;29;20119;-82
2021/12/15 14:07:48;;;;;;;7.78;1.90;;;;;;;8.75;100.00;102680.06;4936937;28;20397;-81
2021/12/15 14:10:13;;;;;;;11.95;2.25;;;;;;;8.69;100.00;102689.13;4936992;29;20106;-76
2021/12/15 14:12:44;;;;;;;13.13;2.20;;;;;;;8.60;100.00;102681.66;4920983;29;20110;-79